Terminal Aerodrome Forecast
Issued by NWS

Home | Current Version | Previous Version | Text Only | Print | Product List | Glossary On
Versions: 1 2 3 4 5 6 7 8 9 10 11 12 13 14 15 16 17 18 19 20 21 22 23
485
FTUS46 KSGX 182323
TAFSAN
TAF
KSAN 182323Z 1900/2006 24008KT P6SM SKC
     FM190200 VRB04KT P6SM SCT008
     FM190600 VRB03KT P6SM OVC009
     FM191700 VRB04KT P6SM SCT012
     FM191900 27008KT P6SM FEW015
     FM200200 VRB04KT P6SM SCT018=

USA.gov is the U.S. government's official web portal to all federal, state and local government web resources and services.